sensor_id;sensor_type;location;lat;lon;timestamp;temperature;humidity
2543;DHT22;1116;51.502;7.414;2024-01-15T00:01:34;2.40;99.90
2543;DHT22;1116;51.502;7.414;2024-01-15T00:04:04;2.50;99.90
2543;DHT22;1116;51.502;7.414;2024-01-15T00:06:36;2.50;99.90
2543;DHT22;1116;51.502;7.414;2024-01-15T00:09:06;2.50;99.90
2543;DHT22;1116;51.502;7.414;2024-01-15T00:11:37;2.40;99.90
2543;DHT22;1116;51.502;7.414;2024-01-15T00:14:06;2.40;99.90
2543;DHT22;1116;51.502;7.414;2024-01-15T00:16:36;2.40;99.90
2543;DHT22;1116;51.502;7.414;2024-01-15T00:19:06;2.40;99.90
2543;DHT22;1116;51.502;7.414;2024-01-15T00:21:38;2.50;99.90
2543;DHT22;1116;51.502;7.414;2024-01-15T00:24:09;2.50;99.90
2543;DHT22;1116;51.502;7.414;2024-01-15T00:26:39;2.50;99.90
2543;DHT22;1116;51.502;7.414;2024-01-15T00:29:09;2.50;99.90
2543;DHT22;1116;51.502;7.414;2024-01-15T00:31:39;2.50;99.90
2543;DHT22;1116;51.502;7.414;2024-01-15T00:34:09;2.50;99.90
2543;DHT22;1116;51.502;7.414;2024-01-15T00:36:41;2.50;99.90
2543;DHT22;1116;51.502;7.414;2024-01-15T00:39:11;2.50;99.90
2543;DHT22;1116;51.502;7.414;2024-01-15T00:41:42;2.50;99.90
2543;DHT22;1116;51.502;7.414;2024-01-15T00:44:12;2.50;99.90
2543;DHT22;1116;51.502;7.414;2024-01-15T00:46:43;3.00;99.90
2543;DHT22;1116;51.502;7.414;2024-01-15T00:49:18;2.50;99.90
2543;DHT22;1116;51.502;7.414;2024-01-15T00:51:51;2.60;99.90
2543;DHT22;1116;51.502;7.414;2024-01-15T00:54:20;2.60;99.90
2543;DHT22;1116;51.502;7.414;2024-01-15T00:56:52;2.60;99.90
2543;DHT22;1116;51.502;7.414;2024-01-15T00:59:22;2.60;99.90
2543;DHT22;1116;51.502;7.414;2024-01-15T01:01:52;2.50;99.90
2543;DHT22;1116;51.502;7.414;2024-01-15T01:04:21;2.60;99.90
2543;DHT22;1116;51.502;7.414;2024-01-15T01:06:54;2.60;99.90
2543;DHT22;1116;51.502;7.414;2024-01-15T01:09:24;2.60;99.90
2543;DHT22;1116;51.502;7.414;2024-01-15T01:11:56;2.70;99.90
2543;DHT22;1116;51.502;7.414;2024-01-15T01:14:29;2.70;99.90
2543;DHT22;1116;51.502;7.414;2024-01-15T01:16:58;2.70;99.90
2543;DHT22;1116;51.502;7.414;2024-01-15T01:19:28;2.60;99.90
2543;DHT22;1116;51.502;7.414;2024-01-15T01:22:01;2.60;99.90
2543;DHT22;1116;51.502;7.414;2024-01-15T01:24:31;2.60;99.90
2543;DHT22;1116;51.502;7.414;2024-01-15T01:27:01;2.60;99.90
2543;DHT22;1116;51.502;7.414;2024-01-15T01:29:30;2.60;99.90
2543;DHT22;1116;51.502;7.414;2024-01-15T01:32:00;2.70;99.90
2543;DHT22;1116;51.502;7.414;2024-01-15T01:34:32;2.70;99.90
2543;DHT22;1116;51.502;7.414;2024-01-15T01:37:05;2.70;99.90
2543;DHT22;1116;51.502;7.414;2024-01-15T01:39:39;2.70;99.90
2543;DHT22;1116;51.502;7.414;2024-01-15T01:42:10;2.70;99.90
2543;DHT22;1116;51.502;7.414;2024-01-15T01:44:40;2.60;99.90
2543;DHT22;1116;51.502;7.414;2024-01-15T01:47:10;2.60;99.90
2543;DHT22;1116;51.502;7.414;2024-01-15T01:49:42;2.60;99.90
2543;DHT22;1116;51.502;7.414;2024-01-15T01:52:15;2.60;99.90
2543;DHT22;1116;51.502;7.414;2024-01-15T01:54:45;2.60;99.90
2543;DHT22;1116;51.502;7.414;2024-01-15T01:57:18;2.60;99.90
2543;DHT22;1116;51.502;7.414;2024-01-15T01:59:49;2.90;99.90
2543;DHT22;1116;51.502;7.414;2024-01-15T02:02:19;2.60;99.90
2543;DHT22;1116;51.502;7.414;2024-01-15T02:04:50;2.60;99.90
2543;DHT22;1116;51.502;7.414;2024-01-15T02:07:23;2.60;99.90
2543;DHT22;1116;51.502;7.414;2024-01-15T02:09:53;2.60;99.90
2543;DHT22;1116;51.502;7.414;2024-01-15T02:12:23;2.60;99.90
2543;DHT22;1116;51.502;7.414;2024-01-15T02:14:53;2.60;99.90
2543;DHT22;1116;51.502;7.414;2024-01-15T02:17:23;2.60;99.90
2543;DHT22;1116;51.502;7.414;2024-01-15T02:19:53;2.50;99.90
2543;DHT22;1116;51.502;7.414;2024-01-15T02:22:25;2.60;99.90
2543;DHT22;1116;51.502;7.414;2024-01-15T02:24:58;2.50;99.90
2543;DHT22;1116;51.502;7.414;2024-01-15T02:27:28;2.50;99.90
2543;DHT22;1116;51.502;7.414;2024-01-15T02:29:57;2.50;99.90
2543;DHT22;1116;51.502;7.414;2024-01-15T02:32:27;2.60;99.90
2543;DHT22;1116;51.502;7.414;2024-01-15T02:34:57;2.50;99.90
2543;DHT22;1116;51.502;7.414;2024-01-15T02:37:27;2.50;99.90
2543;DHT22;1116;51.502;7.414;2024-01-15T02:39:59;2.60;99.90
2543;DHT22;1116;51.502;7.414;2024-01-15T02:42:30;2.60;99.90
2543;DHT22;1116;51.502;7.414;2024-01-15T02:45:00;2.60;99.90
2543;DHT22;1116;51.502;7.414;2024-01-15T02:47:30;2.60;99.90
2543;DHT22;1116;51.502;7.414;2024-01-15T02:50:00;2.50;99.90
2543;DHT22;1116;51.502;7.414;2024-01-15T02:52:30;2.60;99.90
2543;DHT22;1116;51.502;7.414;2024-01-15T02:55:02;2.60;99.90
2543;DHT22;1116;51.502;7.414;2024-01-15T02:57:32;2.70;99.90
2543;DHT22;1116;51.502;7.414;2024-01-15T03:00:03;2.50;99.90
2543;DHT22;1116;51.502;7.414;2024-01-15T03:02:36;2.50;99.90
2543;DHT22;1116;51.502;7.414;2024-01-15T03:05:10;2.50;99.90
2543;DHT22;1116;51.502;7.414;2024-01-15T03:07:40;2.60;99.90
2543;DHT22;1116;51.502;7.414;2024-01-15T03:10:13;2.70;99.90
2543;DHT22;1116;51.502;7.414;2024-01-15T03:12:45;2.70;99.90
2543;DHT22;1116;51.502;7.414;2024-01-15T03:15:15;2.60;99.90
2543;DHT22;1116;51.502;7.414;2024-01-15T03:17:45;2.60;99.90
2543;DHT22;1116;51.502;7.414;2024-01-15T03:20:15;2.50;99.90
2543;DHT22;1116;51.502;7.414;2024-01-15T03:22:48;2.50;99.90
2543;DHT22;1116;51.502;7.414;2024-01-15T03:25:20;2.60;99.90
2543;DHT22;1116;51.502;7.414;2024-01-15T03:27:50;2.50;99.90
2543;DHT22;1116;51.502;7.414;2024-01-15T03:30:20;2.50;99.90
2543;DHT22;1116;51.502;7.414;2024-01-15T03:32:53;2.60;99.90
2543;DHT22;1116;51.502;7.414;2024-01-15T03:35:23;2.60;99.90
2543;DHT22;1116;51.502;7.414;2024-01-15T03:37:56;2.60;99.90
2543;DHT22;1116;51.502;7.414;2024-01-15T03:40:28;2.60;99.90
2543;DHT22;1116;51.502;7.414;2024-01-15T03:42:58;2.60;99.90
2543;DHT22;1116;51.502;7.414;2024-01-15T03:45:28;2.60;99.90
2543;DHT22;1116;51.502;7.414;2024-01-15T03:47:58;2.70;99.90
2543;DHT22;1116;51.502;7.414;2024-01-15T03:50:28;2.70;99.90
2543;DHT22;1116;51.502;7.414;2024-01-15T03:52:58;2.70;99.90
2543;DHT22;1116;51.502;7.414;2024-01-15T03:55:30;2.70;99.90
2543;DHT22;1116;51.502;7.414;2024-01-15T03:58:00;2.70;99.90
2543;DHT22;1116;51.502;7.414;2024-01-15T04:00:30;2.70;99.90
2543;DHT22;1116;51.502;7.414;2024-01-15T04:03:00;2.70;99.90
2543;DHT22;1116;51.502;7.414;2024-01-15T04:05:30;2.70;99.90
2543;DHT22;1116;51.502;7.414;2024-01-15T04:07:59;2.70;99.90
2543;DHT22;1116;51.502;7.414;2024-01-15T04:10:32;2.80;99.90
2543;DHT22;1116;51.502;7.414;2024-01-15T04:13:01;2.70;99.90
2543;DHT22;1116;51.502;7.414;2024-01-15T04:15:40;2.60;99.90
2543;DHT22;1116;51.502;7.414;2024-01-15T04:18:09;2.60;99.90
2543;DHT22;1116;51.502;7.414;2024-01-15T04:20:39;2.60;99.90
2543;DHT22;1116;51.502;7.414;2024-01-15T04:23:09;2.60;99.90
2543;DHT22;1116;51.502;7.414;2024-01-15T04:25:42;2.70;99.90
2543;DHT22;1116;51.502;7.414;2024-01-15T04:28:13;2.70;99.90
2543;DHT22;1116;51.502;7.414;2024-01-15T04:30:43;2.70;99.90
2543;DHT22;1116;51.502;7.414;2024-01-15T04:33:13;2.70;99.90
2543;DHT22;1116;51.502;7.414;2024-01-15T04:35:43;2.70;99.90
2543;DHT22;1116;51.502;7.414;2024-01-15T04:38:13;2.60;99.90
2543;DHT22;1116;51.502;7.414;2024-01-15T04:40:48;2.70;99.90
2543;DHT22;1116;51.502;7.414;2024-01-15T04:43:22;2.60;99.90
2543;DHT22;1116;51.502;7.414;2024-01-15T04:45:52;2.60;99.90
2543;DHT22;1116;51.502;7.414;2024-01-15T04:48:22;2.60;99.90
2543;DHT22;1116;51.502;7.414;2024-01-15T04:50:52;2.70;99.90
2543;DHT22;1116;51.502;7.414;2024-01-15T04:53:22;3.00;99.90
2543;DHT22;1116;51.502;7.414;2024-01-15T04:55:54;2.70;99.90
2543;DHT22;1116;51.502;7.414;2024-01-15T04:58:24;2.70;99.90
2543;DHT22;1116;51.502;7.414;2024-01-15T05:00:54;2.70;99.90
2543;DHT22;1116;51.502;7.414;2024-01-15T05:03:24;2.90;99.90
2543;DHT22;1116;51.502;7.414;2024-01-15T05:05:54;2.70;99.90
2543;DHT22;1116;51.502;7.414;2024-01-15T05:08:24;2.70;99.90
2543;DHT22;1116;51.502;7.414;2024-01-15T05:10:57;2.80;99.90
2543;DHT22;1116;51.502;7.414;2024-01-15T05:13:26;2.80;99.90
2543;DHT22;1116;51.502;7.414;2024-01-15T05:15:56;3.20;99.90
2543;DHT22;1116;51.502;7.414;2024-01-15T05:18:26;2.70;99.90
2543;DHT22;1116;51.502;7.414;2024-01-15T05:20:56;2.70;99.90
2543;DHT22;1116;51.502;7.414;2024-01-15T05:23:26;2.70;99.90
2543;DHT22;1116;51.502;7.414;2024-01-15T05:25:58;2.70;99.90
2543;DHT22;1116;51.502;7.414;2024-01-15T05:28:29;2.70;99.90
2543;DHT22;1116;51.502;7.414;2024-01-15T05:31:00;2.80;99.90
2543;DHT22;1116;51.502;7.414;2024-01-15T05:33:30;2.80;99.90
2543;DHT22;1116;51.502;7.414;2024-01-15T05:36:00;2.80;99.90
2543;DHT22;1116;51.502;7.414;2024-01-15T05:38:30;2.80;99.90
2543;DHT22;1116;51.502;7.414;2024-01-15T05:41:02;2.80;99.90
2543;DHT22;1116;51.502;7.414;2024-01-15T05:43:32;2.80;99.90
2543;DHT22;1116;51.502;7.414;2024-01-15T05:46:02;2.80;99.90
2543;DHT22;1116;51.502;7.414;2024-01-15T05:48:32;2.80;99.90
2543;DHT22;1116;51.502;7.414;2024-01-15T05:51:02;2.80;99.90
2543;DHT22;1116;51.502;7.414;2024-01-15T05:53:32;2.80;99.90
2543;DHT22;1116;51.502;7.414;2024-01-15T05:56:05;2.80;99.90
2543;DHT22;1116;51.502;7.414;2024-01-15T05:58:35;2.80;99.90
2543;DHT22;1116;51.502;7.414;2024-01-15T06:01:05;2.90;99.90
2543;DHT22;1116;51.502;7.414;2024-01-15T06:03:35;2.90;99.90
2543;DHT22;1116;51.502;7.414;2024-01-15T06:06:05;2.90;99.90
2543;DHT22;1116;51.502;7.414;2024-01-15T06:08:35;2.80;99.90
2543;DHT22;1116;51.502;7.414;2024-01-15T06:11:07;2.80;99.90
2543;DHT22;1116;51.502;7.414;2024-01-15T06:13:37;2.80;99.90
2543;DHT22;1116;51.502;7.414;2024-01-15T06:16:13;2.90;99.90
2543;DHT22;1116;51.502;7.414;2024-01-15T06:18:43;2.90;99.90
2543;DHT22;1116;51.502;7.414;2024-01-15T06:21:13;2.90;99.90
2543;DHT22;1116;51.502;7.414;2024-01-15T06:23:44;2.90;99.90
2543;DHT22;1116;51.502;7.414;2024-01-15T06:26:16;2.90;99.90
2543;DHT22;1116;51.502;7.414;2024-01-15T06:28:46;2.80;99.90
2543;DHT22;1116;51.502;7.414;2024-01-15T06:31:16;2.80;99.90
2543;DHT22;1116;51.502;7.414;2024-01-15T06:33:46;2.80;99.90
2543;DHT22;1116;51.502;7.414;2024-01-15T06:36:16;2.80;99.90
2543;DHT22;1116;51.502;7.414;2024-01-15T06:38:46;2.90;99.90
2543;DHT22;1116;51.502;7.414;2024-01-15T06:41:18;2.90;99.90
2543;DHT22;1116;51.502;7.414;2024-01-15T06:43:48;2.90;99.90
2543;DHT22;1116;51.502;7.414;2024-01-15T06:46:20;2.90;99.90
2543;DHT22;1116;51.502;7.414;2024-01-15T06:48:50;2.90;99.90
2543;DHT22;1116;51.502;7.414;2024-01-15T06:51:20;2.90;99.90
2543;DHT22;1116;51.502;7.414;2024-01-15T06:53:50;2.90;99.90
2543;DHT22;1116;51.502;7.414;2024-01-15T06:56:23;2.80;99.90
2543;DHT22;1116;51.502;7.414;2024-01-15T06:58:53;2.80;99.90
2543;DHT22;1116;51.502;7.414;2024-01-15T07:01:22;2.90;99.90
2543;DHT22;1116;51.502;7.414;2024-01-15T07:03:52;2.90;99.90
2543;DHT22;1116;51.502;7.414;2024-01-15T07:06:22;2.80;99.90
2543;DHT22;1116;51.502;7.414;2024-01-15T07:08:52;2.80;99.90
2543;DHT22;1116;51.502;7.414;2024-01-15T07:11:25;2.90;99.90
2543;DHT22;1116;51.502;7.414;2024-01-15T07:13:55;2.90;99.90
2543;DHT22;1116;51.502;7.414;2024-01-15T07:16:24;2.90;99.90
2543;DHT22;1116;51.502;7.414;2024-01-15T07:19:04;2.90;99.90
2543;DHT22;1116;51.502;7.414;2024-01-15T07:21:34;2.90;99.90
2543;DHT22;1116;51.502;7.414;2024-01-15T07:24:06;2.90;99.90
2543;DHT22;1116;51.502;7.414;2024-01-15T07:26:39;2.90;99.90
2543;DHT22;1116;51.502;7.414;2024-01-15T07:29:09;3.10;99.90
2543;DHT22;1116;51.502;7.414;2024-01-15T07:31:39;3.00;99.90
2543;DHT22;1116;51.502;7.414;2024-01-15T07:34:09;2.90;99.90
2543;DHT22;1116;51.502;7.414;2024-01-15T07:36:39;2.90;99.90
2543;DHT22;1116;51.502;7.414;2024-01-15T07:39:09;2.80;99.90
2543;DHT22;1116;51.502;7.414;2024-01-15T07:41:41;2.80;99.90
2543;DHT22;1116;51.502;7.414;2024-01-15T07:44:11;2.80;99.90
2543;DHT22;1116;51.502;7.414;2024-01-15T07:46:44;2.90;99.90
2543;DHT22;1116;51.502;7.414;2024-01-15T07:49:14;2.90;99.90
2543;DHT22;1116;51.502;7.414;2024-01-15T07:51:44;2.90;99.90
2543;DHT22;1116;51.502;7.414;2024-01-15T07:54:14;2.90;99.90
2543;DHT22;1116;51.502;7.414;2024-01-15T07:56:58;2.90;99.90
2543;DHT22;1116;51.502;7.414;2024-01-15T07:59:30;2.90;99.90
2543;DHT22;1116;51.502;7.414;2024-01-15T08:02:00;2.90;99.90
2543;DHT22;1116;51.502;7.414;2024-01-15T08:04:30;2.90;99.90
2543;DHT22;1116;51.502;7.414;2024-01-15T08:07:00;2.90;99.90
2543;DHT22;1116;51.502;7.414;2024-01-15T08:09:30;2.90;99.90
2543;DHT22;1116;51.502;7.414;2024-01-15T08:12:03;2.90;99.90
2543;DHT22;1116;51.502;7.414;2024-01-15T08:14:33;2.90;99.90
2543;DHT22;1116;51.502;7.414;2024-01-15T08:17:03;2.90;99.90
2543;DHT22;1116;51.502;7.414;2024-01-15T08:19:33;3.00;99.90
2543;DHT22;1116;51.502;7.414;2024-01-15T08:22:03;2.90;99.90
2543;DHT22;1116;51.502;7.414;2024-01-15T08:24:33;2.90;99.90
2543;DHT22;1116;51.502;7.414;2024-01-15T08:27:05;2.90;99.90
2543;DHT22;1116;51.502;7.414;2024-01-15T08:29:35;2.90;99.90
2543;DHT22;1116;51.502;7.414;2024-01-15T08:32:05;2.90;99.90
2543;DHT22;1116;51.502;7.414;2024-01-15T08:34:40;2.90;99.90
2543;DHT22;1116;51.502;7.414;2024-01-15T08:37:10;2.80;99.90
2543;DHT22;1116;51.502;7.414;2024-01-15T08:39:40;2.80;99.90
2543;DHT22;1116;51.502;7.414;2024-01-15T08:42:13;2.90;99.90
2543;DHT22;1116;51.502;7.414;2024-01-15T08:44:43;2.80;99.90
2543;DHT22;1116;51.502;7.414;2024-01-15T08:47:14;2.80;99.90
2543;DHT22;1116;51.502;7.414;2024-01-15T08:49:43;2.80;99.90
2543;DHT22;1116;51.502;7.414;2024-01-15T08:52:13;2.80;99.90
2543;DHT22;1116;51.502;7.414;2024-01-15T08:54:43;2.80;99.90
2543;DHT22;1116;51.502;7.414;2024-01-15T08:57:16;2.80;99.90
2543;DHT22;1116;51.502;7.414;2024-01-15T08:59:47;2.80;99.90
2543;DHT22;1116;51.502;7.414;2024-01-15T09:02:20;2.80;99.90
2543;DHT22;1116;51.502;7.414;2024-01-15T09:04:50;2.90;99.90
2543;DHT22;1116;51.502;7.414;2024-01-15T09:07:20;2.90;99.90
2543;DHT22;1116;51.502;7.414;2024-01-15T09:09:51;2.80;99.90
2543;DHT22;1116;51.502;7.414;2024-01-15T09:12:24;3.10;99.90
2543;DHT22;1116;51.502;7.414;2024-01-15T09:14:53;2.80;99.90
2543;DHT22;1116;51.502;7.414;2024-01-15T09:17:23;2.80;99.90
2543;DHT22;1116;51.502;7.414;2024-01-15T09:19:55;2.70;99.90
2543;DHT22;1116;51.502;7.414;2024-01-15T09:22:25;2.80;99.90
2543;DHT22;1116;51.502;7.414;2024-01-15T09:24:54;2.80;99.90
2543;DHT22;1116;51.502;7.414;2024-01-15T09:27:27;2.70;99.90
2543;DHT22;1116;51.502;7.414;2024-01-15T09:29:58;2.80;99.90
2543;DHT22;1116;51.502;7.414;2024-01-15T09:32:27;2.80;99.90
2543;DHT22;1116;51.502;7.414;2024-01-15T09:34:57;2.90;99.90
2543;DHT22;1116;51.502;7.414;2024-01-15T09:37:27;2.80;99.90
2543;DHT22;1116;51.502;7.414;2024-01-15T09:40:13;2.70;99.90
2543;DHT22;1116;51.502;7.414;2024-01-15T09:42:47;2.70;99.90
2543;DHT22;1116;51.502;7.414;2024-01-15T09:45:17;2.80;99.90
2543;DHT22;1116;51.502;7.414;2024-01-15T09:47:47;2.80;99.90
2543;DHT22;1116;51.502;7.414;2024-01-15T09:50:21;3.00;99.90
2543;DHT22;1116;51.502;7.414;2024-01-15T09:52:51;2.70;99.90
2543;DHT22;1116;51.502;7.414;2024-01-15T09:55:24;2.70;99.90
2543;DHT22;1116;51.502;7.414;2024-01-15T09:58:00;2.70;99.90
2543;DHT22;1116;51.502;7.414;2024-01-15T10:00:34;2.70;99.90
2543;DHT22;1116;51.502;7.414;2024-01-15T10:03:06;2.60;99.90
2543;DHT22;1116;51.502;7.414;2024-01-15T10:05:37;2.60;99.90
2543;DHT22;1116;51.502;7.414;2024-01-15T10:08:08;2.60;99.90
2543;DHT22;1116;51.502;7.414;2024-01-15T10:10:38;2.60;99.90
2543;DHT22;1116;51.502;7.414;2024-01-15T10:13:11;2.60;99.90
2543;DHT22;1116;51.502;7.414;2024-01-15T10:15:45;2.50;99.90
2543;DHT22;1116;51.502;7.414;2024-01-15T10:18:15;2.50;99.90
2543;DHT22;1116;51.502;7.414;2024-01-15T10:20:47;2.60;99.90
2543;DHT22;1116;51.502;7.414;2024-01-15T10:23:17;2.60;99.90
2543;DHT22;1116;51.502;7.414;2024-01-15T10:25:47;2.70;99.90
2543;DHT22;1116;51.502;7.414;2024-01-15T10:28:21;2.70;99.90
2543;DHT22;1116;51.502;7.414;2024-01-15T10:30:52;2.70;99.90
2543;DHT22;1116;51.502;7.414;2024-01-15T10:33:22;2.70;99.90
2543;DHT22;1116;51.502;7.414;2024-01-15T10:35:54;2.80;99.90
2543;DHT22;1116;51.502;7.414;2024-01-15T10:38:24;2.80;99.90
2543;DHT22;1116;51.502;7.414;2024-01-15T10:40:55;2.80;99.90
2543;DHT22;1116;51.502;7.414;2024-01-15T10:43:28;2.80;99.90
2543;DHT22;1116;51.502;7.414;2024-01-15T10:45:58;2.70;99.90
2543;DHT22;1116;51.502;7.414;2024-01-15T10:48:28;2.70;99.90
2543;DHT22;1116;51.502;7.414;2024-01-15T10:50:58;2.60;99.90
2543;DHT22;1116;51.502;7.414;2024-01-15T10:53:30;2.70;99.90
2543;DHT22;1116;51.502;7.414;2024-01-15T10:56:02;2.70;99.90
2543;DHT22;1116;51.502;7.414;2024-01-15T10:58:35;3.20;99.90
2543;DHT22;1116;51.502;7.414;2024-01-15T11:01:06;2.80;99.90
2543;DHT22;1116;51.502;7.414;2024-01-15T11:03:36;2.80;99.90
2543;DHT22;1116;51.502;7.414;2024-01-15T11:06:16;2.70;99.90
2543;DHT22;1116;51.502;7.414;2024-01-15T11:08:48;2.70;99.90
2543;DHT22;1116;51.502;7.414;2024-01-15T11:11:20;2.60;99.90
2543;DHT22;1116;51.502;7.414;2024-01-15T11:13:53;2.70;99.90
2543;DHT22;1116;51.502;7.414;2024-01-15T11:16:23;2.70;99.90
2543;DHT22;1116;51.502;7.414;2024-01-15T11:19:03;2.70;99.90
2543;DHT22;1116;51.502;7.414;2024-01-15T11:21:42;2.70;99.90
2543;DHT22;1116;51.502;7.414;2024-01-15T11:24:35;2.80;99.90
2543;DHT22;1116;51.502;7.414;2024-01-15T11:27:06;2.80;99.90
2543;DHT22;1116;51.502;7.414;2024-01-15T11:29:39;2.70;99.90
2543;DHT22;1116;51.502;7.414;2024-01-15T11:32:09;2.80;99.90
2543;DHT22;1116;51.502;7.414;2024-01-15T11:34:53;2.80;99.90
2543;DHT22;1116;51.502;7.414;2024-01-15T11:37:27;2.90;99.90
2543;DHT22;1116;51.502;7.414;2024-01-15T11:40:03;2.90;99.90
2543;DHT22;1116;51.502;7.414;2024-01-15T11:42:37;2.90;99.90
2543;DHT22;1116;51.502;7.414;2024-01-15T11:45:10;3.00;99.90
2543;DHT22;1116;51.502;7.414;2024-01-15T11:48:11;2.90;99.90
2543;DHT22;1116;51.502;7.414;2024-01-15T11:50:43;3.00;99.90
2543;DHT22;1116;51.502;7.414;2024-01-15T11:53:33;3.00;99.90
2543;DHT22;1116;51.502;7.414;2024-01-15T11:56:09;3.00;99.90
2543;DHT22;1116;51.502;7.414;2024-01-15T11:58:44;3.10;99.90
2543;DHT22;1116;51.502;7.414;2024-01-15T12:01:18;3.10;99.90
2543;DHT22;1116;51.502;7.414;2024-01-15T12:03:48;3.20;99.90
2543;DHT22;1116;51.502;7.414;2024-01-15T12:06:18;3.10;99.90
2543;DHT22;1116;51.502;7.414;2024-01-15T12:08:50;3.10;99.90
2543;DHT22;1116;51.502;7.414;2024-01-15T12:11:21;2.70;99.90
2543;DHT22;1116;51.502;7.414;2024-01-15T12:13:53;3.00;99.90
2543;DHT22;1116;51.502;7.414;2024-01-15T12:16:27;3.10;99.90
2543;DHT22;1116;51.502;7.414;2024-01-15T12:18:57;3.20;99.90
2543;DHT22;1116;51.502;7.414;2024-01-15T12:21:29;3.20;99.90
2543;DHT22;1116;51.502;7.414;2024-01-15T12:23:59;3.20;99.90
2543;DHT22;1116;51.502;7.414;2024-01-15T12:26:29;3.20;99.90
2543;DHT22;1116;51.502;7.414;2024-01-15T12:29:01;3.10;99.90
2543;DHT22;1116;51.502;7.414;2024-01-15T12:31:34;3.20;99.90
2543;DHT22;1116;51.502;7.414;2024-01-15T12:34:06;3.20;99.90
2543;DHT22;1116;51.502;7.414;2024-01-15T12:36:35;3.20;99.90
2543;DHT22;1116;51.502;7.414;2024-01-15T12:39:05;3.40;99.90
2543;DHT22;1116;51.502;7.414;2024-01-15T12:41:35;3.40;99.90
2543;DHT22;1116;51.502;7.414;2024-01-15T12:44:05;3.50;99.90
2543;DHT22;1116;51.502;7.414;2024-01-15T12:46:38;3.50;99.90
2543;DHT22;1116;51.502;7.414;2024-01-15T12:49:08;3.50;99.90
2543;DHT22;1116;51.502;7.414;2024-01-15T12:51:38;3.40;99.90
2543;DHT22;1116;51.502;7.414;2024-01-15T12:54:08;3.40;99.90
2543;DHT22;1116;51.502;7.414;2024-01-15T12:56:39;3.40;99.90
2543;DHT22;1116;51.502;7.414;2024-01-15T12:59:09;3.40;99.90
2543;DHT22;1116;51.502;7.414;2024-01-15T13:01:42;3.30;99.90
2543;DHT22;1116;51.502;7.414;2024-01-15T13:04:23;3.20;99.90
2543;DHT22;1116;51.502;7.414;2024-01-15T13:06:54;3.20;99.90
2543;DHT22;1116;51.502;7.414;2024-01-15T13:09:24;3.20;99.90
2543;DHT22;1116;51.502;7.414;2024-01-15T13:11:54;3.10;99.90
2543;DHT22;1116;51.502;7.414;2024-01-15T13:14:24;3.10;99.90
2543;DHT22;1116;51.502;7.414;2024-01-15T13:16:57;3.10;99.90
2543;DHT22;1116;51.502;7.414;2024-01-15T13:19:28;3.10;99.90
2543;DHT22;1116;51.502;7.414;2024-01-15T13:21:59;3.10;99.90
2543;DHT22;1116;51.502;7.414;2024-01-15T13:24:30;3.20;99.90
2543;DHT22;1116;51.502;7.414;2024-01-15T13:27:00;3.20;99.90
2543;DHT22;1116;51.502;7.414;2024-01-15T13:29:31;3.20;99.90
2543;DHT22;1116;51.502;7.414;2024-01-15T13:32:04;3.20;99.90
2543;DHT22;1116;51.502;7.414;2024-01-15T13:34:34;3.20;99.90
2543;DHT22;1116;51.502;7.414;2024-01-15T13:37:04;3.20;99.90
2543;DHT22;1116;51.502;7.414;2024-01-15T13:39:36;3.30;99.90
2543;DHT22;1116;51.502;7.414;2024-01-15T13:42:06;3.20;99.90
2543;DHT22;1116;51.502;7.414;2024-01-15T13:44:38;3.20;99.90
2543;DHT22;1116;51.502;7.414;2024-01-15T13:47:11;3.30;99.90
2543;DHT22;1116;51.502;7.414;2024-01-15T13:49:41;3.30;99.90
2543;DHT22;1116;51.502;7.414;2024-01-15T13:52:11;3.30;99.90
2543;DHT22;1116;51.502;7.414;2024-01-15T13:54:42;3.30;99.90
2543;DHT22;1116;51.502;7.414;2024-01-15T13:57:16;3.30;99.90
2543;DHT22;1116;51.502;7.414;2024-01-15T13:59:47;3.30;99.90
2543;DHT22;1116;51.502;7.414;2024-01-15T14:02:20;3.30;99.90
2543;DHT22;1116;51.502;7.414;2024-01-15T14:04:52;3.30;99.90
2543;DHT22;1116;51.502;7.414;2024-01-15T14:07:22;3.10;99.90
2543;DHT22;1116;51.502;7.414;2024-01-15T14:09:52;3.20;99.90
2543;DHT22;1116;51.502;7.414;2024-01-15T14:12:22;3.20;99.90
2543;DHT22;1116;51.502;7.414;2024-01-15T14:14:53;3.30;99.90
2543;DHT22;1116;51.502;7.414;2024-01-15T14:17:27;3.30;99.90
2543;DHT22;1116;51.502;7.414;2024-01-15T14:19:57;3.30;99.90
2543;DHT22;1116;51.502;7.414;2024-01-15T14:22:30;3.20;99.90
2543;DHT22;1116;51.502;7.414;2024-01-15T14:25:02;3.20;99.90
2543;DHT22;1116;51.502;7.414;2024-01-15T14:27:36;3.10;99.90
2543;DHT22;1116;51.502;7.414;2024-01-15T14:30:07;3.10;99.90
2543;DHT22;1116;51.502;7.414;2024-01-15T14:32:42;3.10;99.90
2543;DHT22;1116;51.502;7.414;2024-01-15T14:35:12;3.00;99.90
2543;DHT22;1116;51.502;7.414;2024-01-15T14:37:42;3.00;99.90
2543;DHT22;1116;51.502;7.414;2024-01-15T14:40:12;3.00;99.90
2543;DHT22;1116;51.502;7.414;2024-01-15T14:42:49;3.10;99.90
2543;DHT22;1116;51.502;7.414;2024-01-15T14:45:20;3.10;99.90
2543;DHT22;1116;51.502;7.414;2024-01-15T14:47:57;3.10;99.90
2543;DHT22;1116;51.502;7.414;2024-01-15T14:50:27;3.10;99.90
2543;DHT22;1116;51.502;7.414;2024-01-15T14:52:57;3.10;99.90
2543;DHT22;1116;51.502;7.414;2024-01-15T14:55:37;3.10;99.90
2543;DHT22;1116;51.502;7.414;2024-01-15T14:58:07;3.10;99.90
2543;DHT22;1116;51.502;7.414;2024-01-15T15:00:37;3.20;99.90
2543;DHT22;1116;51.502;7.414;2024-01-15T15:03:09;3.40;99.90
2543;DHT22;1116;51.502;7.414;2024-01-15T15:05:41;3.10;99.90
2543;DHT22;1116;51.502;7.414;2024-01-15T15:08:12;3.00;99.90
2543;DHT22;1116;51.502;7.414;2024-01-15T15:10:42;3.00;99.90
2543;DHT22;1116;51.502;7.414;2024-01-15T15:13:12;3.00;99.90
2543;DHT22;1116;51.502;7.414;2024-01-15T15:15:49;2.90;99.90
2543;DHT22;1116;51.502;7.414;2024-01-15T15:18:22;3.00;99.90
2543;DHT22;1116;51.502;7.414;2024-01-15T15:20:53;3.00;99.90
2543;DHT22;1116;51.502;7.414;2024-01-15T15:23:25;2.90;99.90
2543;DHT22;1116;51.502;7.414;2024-01-15T15:25:55;2.90;99.90
2543;DHT22;1116;51.502;7.414;2024-01-15T15:28:25;3.00;99.90
2543;DHT22;1116;51.502;7.414;2024-01-15T15:30:55;2.90;99.90
2543;DHT22;1116;51.502;7.414;2024-01-15T15:33:28;2.90;99.90
2543;DHT22;1116;51.502;7.414;2024-01-15T15:35:58;2.90;99.90
2543;DHT22;1116;51.502;7.414;2024-01-15T15:38:31;2.90;99.90
2543;DHT22;1116;51.502;7.414;2024-01-15T15:41:02;2.90;99.90
2543;DHT22;1116;51.502;7.414;2024-01-15T15:43:39;2.80;99.90
2543;DHT22;1116;51.502;7.414;2024-01-15T15:46:09;2.90;99.90
2543;DHT22;1116;51.502;7.414;2024-01-15T15:48:42;2.70;99.90
2543;DHT22;1116;51.502;7.414;2024-01-15T15:51:12;2.70;99.90
2543;DHT22;1116;51.502;7.414;2024-01-15T15:53:42;2.70;99.90
2543;DHT22;1116;51.502;7.414;2024-01-15T15:56:12;2.70;99.90
2543;DHT22;1116;51.502;7.414;2024-01-15T15:58:42;2.70;99.90
2543;DHT22;1116;51.502;7.414;2024-01-15T16:01:11;2.60;99.90
2543;DHT22;1116;51.502;7.414;2024-01-15T16:03:45;2.60;99.90
2543;DHT22;1116;51.502;7.414;2024-01-15T16:06:18;2.60;99.90
2543;DHT22;1116;51.502;7.414;2024-01-15T16:08:48;2.70;99.90
2543;DHT22;1116;51.502;7.414;2024-01-15T16:11:18;2.60;99.90
2543;DHT22;1116;51.502;7.414;2024-01-15T16:13:48;2.60;99.90
2543;DHT22;1116;51.502;7.414;2024-01-15T16:16:18;2.60;99.90
2543;DHT22;1116;51.502;7.414;2024-01-15T16:19:11;2.60;99.90
2543;DHT22;1116;51.502;7.414;2024-01-15T16:22:01;2.50;99.90
2543;DHT22;1116;51.502;7.414;2024-01-15T16:24:51;2.50;99.90
2543;DHT22;1116;51.502;7.414;2024-01-15T16:27:25;2.50;99.90
2543;DHT22;1116;51.502;7.414;2024-01-15T16:29:55;2.60;99.90
2543;DHT22;1116;51.502;7.414;2024-01-15T16:32:25;2.40;99.90
2543;DHT22;1116;51.502;7.414;2024-01-15T16:35:01;2.40;99.90
2543;DHT22;1116;51.502;7.414;2024-01-15T16:37:31;2.40;99.90
2543;DHT22;1116;51.502;7.414;2024-01-15T16:40:03;2.30;99.90
2543;DHT22;1116;51.502;7.414;2024-01-15T16:42:34;2.30;99.90
2543;DHT22;1116;51.502;7.414;2024-01-15T16:45:05;2.30;99.90